createdAt,value
2023-03-18T00:01:15.235Z,99520.09
2023-03-18T00:03:43.336Z,99523.19
2023-03-18T00:06:17.025Z,99541.19
2023-03-18T00:08:50.711Z,99541.59
2023-03-18T00:11:31.826Z,99533.31
2023-03-18T00:14:01.615Z,99542.66
2023-03-18T00:16:45.847Z,99548.19
2023-03-18T00:19:26.174Z,99527.94
2023-03-18T00:22:28.441Z,99534.78
2023-03-18T00:24:57.611Z,99540.44
2023-03-18T00:27:28.656Z,99546.81
2023-03-18T00:29:57.493Z,99540.53
2023-03-18T00:32:27.793Z,99540.09
2023-03-18T00:34:56.507Z,99537.97
2023-03-18T00:37:31.126Z,99551.66
2023-03-18T00:40:07.502Z,99533.88
2023-03-18T00:42:42.723Z,99526.41
2023-03-18T00:45:14.212Z,99489.00
2023-03-18T00:47:42.818Z,99509.75
2023-03-18T00:50:14.810Z,99502.75
2023-03-18T00:52:42.755Z,99481.84
2023-03-18T00:55:12.313Z,99468.78
2023-03-18T00:57:40.231Z,99443.00
2023-03-18T01:00:09.823Z,99454.06
2023-03-18T01:02:40.858Z,99448.31
2023-03-18T01:05:09.592Z,99443.28
2023-03-18T01:07:37.882Z,99441.59
2023-03-18T01:10:07.826Z,99449.91
2023-03-18T01:12:38.921Z,99441.59
2023-03-18T01:15:10.591Z,99446.69
2023-03-18T01:17:38.515Z,99443.50
2023-03-18T01:20:07.738Z,99447.47
2023-03-18T01:22:36.042Z,99441.41
2023-03-18T01:25:03.977Z,99448.81
2023-03-18T01:27:31.789Z,99447.72
2023-03-18T01:30:01.362Z,99456.16
2023-03-18T01:32:29.806Z,99450.19
2023-03-18T01:34:58.182Z,99450.38
2023-03-18T01:37:26.344Z,99451.53
2023-03-18T01:39:54.675Z,99448.47
2023-03-18T01:42:22.846Z,99447.84
2023-03-18T01:44:51.103Z,99446.34
2023-03-18T01:47:21.456Z,99458.81
2023-03-18T01:49:52.380Z,99469.59
2023-03-18T01:52:22.766Z,99462.38
2023-03-18T01:54:56.676Z,99485.69
2023-03-18T01:57:25.056Z,99507.47
2023-03-18T01:59:55.288Z,99510.66
2023-03-18T02:02:25.389Z,99512.63
2023-03-18T02:04:56.848Z,99529.09
2023-03-18T02:07:27.923Z,99550.53
2023-03-18T02:09:58.039Z,99586.06
2023-03-18T02:12:29.843Z,99628.25
2023-03-18T02:14:58.679Z,99657.53
2023-03-18T02:17:32.836Z,99700.84
2023-03-18T02:20:14.683Z,99792.28
2023-03-18T02:22:45.977Z,99882.53
2023-03-18T02:25:27.048Z,99939.38
2023-03-18T02:28:00.516Z,99976.56
2023-03-18T02:30:33.130Z,100030.59
2023-03-18T02:33:01.788Z,100070.84
2023-03-18T02:35:30.987Z,100128.25
2023-03-18T02:37:59.054Z,100190.19
2023-03-18T02:40:33.302Z,100250.25
2023-03-18T02:43:18.782Z,100340.13
2023-03-18T02:45:56.625Z,100404.47
2023-03-18T02:48:29.075Z,100462.91
2023-03-18T02:50:58.367Z,100523.44
2023-03-18T02:53:26.238Z,100579.47
2023-03-18T02:55:54.360Z,100662.06
2023-03-18T02:58:25.715Z,100682.69
2023-03-18T03:00:53.532Z,100720.34
2023-03-18T03:03:21.617Z,100723.13
2023-03-18T03:05:50.509Z,100744.41
2023-03-18T03:08:18.896Z,100761.44
2023-03-18T03:10:51.070Z,100801.00
2023-03-18T03:13:21.670Z,100842.41
2023-03-18T03:15:52.546Z,100867.63
2023-03-18T03:18:21.566Z,100883.59
2023-03-18T03:20:52.217Z,100897.97
2023-03-18T03:23:33.725Z,100921.53
2023-03-18T03:27:10.595Z,100947.19
2023-03-18T03:29:40.662Z,100959.81
2023-03-18T03:32:10.768Z,100997.63
2023-03-18T03:34:41.598Z,101025.84
2023-03-18T03:37:12.116Z,101051.50
2023-03-18T03:39:40.284Z,101061.44
2023-03-18T03:42:10.390Z,101095.06
2023-03-18T03:44:41.137Z,101120.91
2023-03-18T03:47:14.056Z,101164.28
2023-03-18T03:49:42.656Z,101054.34
2023-03-18T03:52:10.888Z,101078.03
2023-03-18T03:54:41.666Z,101091.31
2023-03-18T03:57:09.903Z,101121.19
2023-03-18T03:59:37.994Z,101115.06
2023-03-18T04:02:08.909Z,101127.34
2023-03-18T04:04:38.791Z,101138.75
2023-03-18T04:07:06.798Z,101123.91
2023-03-18T04:09:36.213Z,101141.31
2023-03-18T04:12:05.592Z,101133.41
2023-03-18T04:14:33.489Z,101135.34
2023-03-18T04:17:03.020Z,101131.88
2023-03-18T04:19:31.149Z,101132.66
2023-03-18T04:22:00.466Z,101134.53
2023-03-18T04:24:28.476Z,101144.25
2023-03-18T04:26:56.359Z,101132.78
2023-03-18T04:29:24.449Z,101135.59
2023-03-18T04:31:52.398Z,101135.50
2023-03-18T04:34:20.518Z,101150.31
2023-03-18T04:36:48.769Z,101142.63
2023-03-18T04:39:18.465Z,101175.84
2023-03-18T04:41:49.760Z,101181.97
2023-03-18T04:44:19.315Z,101188.19
2023-03-18T04:46:47.262Z,101185.78
2023-03-18T04:49:15.298Z,101189.41
2023-03-18T04:51:43.253Z,101203.28
2023-03-18T04:54:12.627Z,101195.25
2023-03-18T04:56:42.293Z,101193.47
2023-03-18T04:59:10.427Z,101189.94
2023-03-18T05:01:38.368Z,101179.28
2023-03-18T05:04:06.773Z,101158.16
2023-03-18T05:06:34.949Z,101172.69
2023-03-18T05:09:05.298Z,101165.66
2023-03-18T05:11:33.655Z,101164.84
2023-03-18T05:14:03.167Z,101157.88
2023-03-18T05:16:31.311Z,101179.00
2023-03-18T05:18:59.302Z,101165.81
2023-03-18T05:21:30.044Z,101168.41
2023-03-18T05:23:58.375Z,101146.50
2023-03-18T05:26:26.265Z,101146.34
2023-03-18T05:28:55.717Z,101150.06
2023-03-18T05:31:26.175Z,101130.97
2023-03-18T05:33:54.176Z,101136.19
2023-03-18T05:36:22.380Z,101124.16
2023-03-18T05:38:57.711Z,101132.53
2023-03-18T05:41:28.303Z,101132.78
2023-03-18T05:43:56.338Z,101146.00
2023-03-18T05:46:25.896Z,101134.66
2023-03-18T05:48:53.799Z,101146.22
2023-03-18T05:51:21.698Z,101140.09
2023-03-18T05:53:50.437Z,101135.72
2023-03-18T05:56:18.805Z,101126.72
2023-03-18T05:58:47.102Z,101129.34
2023-03-18T06:01:15.385Z,101112.66
2023-03-18T06:03:45.209Z,101088.22
2023-03-18T06:06:13.155Z,101095.06
2023-03-18T06:08:41.243Z,101102.75
2023-03-18T06:11:09.215Z,101107.94
2023-03-18T06:13:37.560Z,101102.47
2023-03-18T06:16:06.436Z,101094.69
2023-03-18T06:18:35.255Z,101101.56
2023-03-18T06:21:04.940Z,101107.63
2023-03-18T06:23:33.937Z,101107.47
2023-03-18T06:26:01.882Z,101090.81
2023-03-18T06:28:30.177Z,101116.06
2023-03-18T06:30:59.140Z,101113.41
2023-03-18T06:33:27.242Z,101095.97
2023-03-18T06:35:56.267Z,101118.66
2023-03-18T06:38:25.807Z,101117.72
2023-03-18T06:40:54.631Z,101127.22
2023-03-18T06:43:22.705Z,101122.25
2023-03-18T06:45:51.001Z,101134.44
2023-03-18T06:48:19.379Z,101147.78
2023-03-18T06:50:50.222Z,101146.94
2023-03-18T06:53:19.132Z,101149.41
2023-03-18T06:55:50.953Z,101149.00
2023-03-18T06:58:21.159Z,101149.47
2023-03-18T07:00:49.192Z,101151.13
2023-03-18T07:03:17.121Z,101153.00
2023-03-18T07:05:45.250Z,101162.06
2023-03-18T07:08:13.167Z,101145.19
2023-03-18T07:10:44.562Z,101154.28
2023-03-18T07:13:17.032Z,101146.78
2023-03-18T07:15:45.361Z,101156.66
2023-03-18T07:18:14.464Z,101166.03
2023-03-18T07:20:43.278Z,101177.03
2023-03-18T07:23:11.679Z,101194.75
2023-03-18T07:25:39.618Z,101212.97
2023-03-18T07:28:07.574Z,101262.03
2023-03-18T07:30:38.135Z,101307.38
2023-03-18T07:33:07.281Z,101332.63
2023-03-18T07:35:38.091Z,101396.16
2023-03-18T07:38:06.011Z,101423.13
2023-03-18T07:40:33.965Z,101419.06
2023-03-18T07:43:07.592Z,101424.53
2023-03-18T07:45:49.580Z,101417.56
2023-03-18T07:48:24.587Z,101429.88
2023-03-18T07:50:59.564Z,101435.34
2023-03-18T07:53:27.776Z,101417.47
2023-03-18T07:56:00.788Z,101442.81
2023-03-18T07:58:34.613Z,101446.41
2023-03-18T08:01:04.716Z,101443.75
2023-03-18T08:03:33.942Z,101456.94
2023-03-18T08:06:02.736Z,101448.00
2023-03-18T08:08:33.260Z,101440.09
2023-03-18T08:11:02.503Z,101444.38
2023-03-18T08:13:30.460Z,101451.50
2023-03-18T08:15:58.840Z,101446.22
2023-03-18T08:18:28.430Z,101440.94
2023-03-18T08:20:58.504Z,101440.78
2023-03-18T08:23:26.587Z,101451.84
2023-03-18T08:25:56.770Z,101455.19
2023-03-18T08:28:27.411Z,101458.53
2023-03-18T08:30:57.182Z,101467.91
2023-03-18T08:33:26.100Z,101498.38
2023-03-18T08:35:58.031Z,101501.69
2023-03-18T08:38:28.631Z,101504.59
2023-03-18T08:40:56.937Z,101500.91
2023-03-18T08:43:25.700Z,101501.53
2023-03-18T08:45:54.863Z,101503.13
2023-03-18T08:48:24.214Z,101501.59
2023-03-18T08:50:58.412Z,101524.88
2023-03-18T08:53:28.317Z,101516.41
2023-03-18T08:55:56.463Z,101533.00
2023-03-18T08:58:24.625Z,101541.22
2023-03-18T09:00:55.519Z,101523.50
2023-03-18T09:03:24.365Z,101542.25
2023-03-18T09:05:57.604Z,101530.88
2023-03-18T09:08:28.238Z,101564.34
2023-03-18T09:10:56.551Z,101564.88
2023-03-18T09:13:24.707Z,101572.25
2023-03-18T09:15:52.984Z,101526.06
2023-03-18T09:18:22.879Z,101448.91
2023-03-18T09:20:51.183Z,101369.19
2023-03-18T09:23:23.861Z,101286.34
2023-03-18T09:25:51.793Z,101250.38
2023-03-18T09:28:21.736Z,101138.66
2023-03-18T09:30:50.866Z,100991.94
2023-03-18T09:33:20.788Z,101030.41
2023-03-18T09:35:49.500Z,101094.19
2023-03-18T09:38:23.218Z,100969.81
2023-03-18T09:41:04.198Z,100783.34
2023-03-18T09:43:54.235Z,100671.16
2023-03-18T09:46:33.539Z,100598.66
2023-03-18T09:49:15.052Z,100683.59
2023-03-18T09:51:54.963Z,100663.34
2023-03-18T09:54:33.211Z,100606.16
2023-03-18T09:57:04.395Z,100652.75
2023-03-18T09:59:40.176Z,100703.28
2023-03-18T10:02:20.674Z,100810.44
2023-03-18T10:04:56.183Z,100865.53
2023-03-18T10:07:29.753Z,100870.50
2023-03-18T10:10:04.026Z,100974.44
2023-03-18T10:12:38.817Z,100979.53
2023-03-18T10:15:17.748Z,101026.22
2023-03-18T10:17:54.936Z,100937.13
2023-03-18T10:20:36.899Z,100861.75
2023-03-18T10:23:18.249Z,100884.38
2023-03-18T10:25:53.596Z,100850.34
2023-03-18T10:28:42.545Z,100823.81
2023-03-18T10:31:25.534Z,100852.66
2023-03-18T10:33:59.671Z,100749.28
2023-03-18T10:36:35.649Z,100773.91
2023-03-18T10:39:04.032Z,100802.06
2023-03-18T10:41:37.713Z,100748.56
2023-03-18T10:44:19.161Z,100714.88
2023-03-18T10:46:48.732Z,100662.84
2023-03-18T10:49:24.914Z,100656.31
2023-03-18T10:51:56.568Z,100677.56
2023-03-18T10:54:28.370Z,100720.97
2023-03-18T10:56:56.633Z,100772.66
2023-03-18T10:59:31.854Z,100729.25
2023-03-18T11:02:06.529Z,100785.66
2023-03-18T11:04:46.988Z,100805.59
2023-03-18T11:07:20.853Z,100755.00
2023-03-18T11:09:48.798Z,100676.63
2023-03-18T11:12:21.932Z,100687.16
2023-03-18T11:14:53.591Z,100746.31
2023-03-18T11:17:23.302Z,100750.97
2023-03-18T11:20:04.724Z,100686.78
2023-03-18T11:22:33.226Z,100581.84
2023-03-18T11:25:13.479Z,100574.09
2023-03-18T11:27:44.235Z,100487.69
2023-03-18T11:30:33.244Z,100444.38
2023-03-18T11:33:08.163Z,100496.63
2023-03-18T11:35:47.337Z,100464.28
2023-03-18T11:38:22.163Z,100522.75
2023-03-18T11:40:50.155Z,100515.50
2023-03-18T11:43:21.686Z,100424.09
2023-03-18T11:45:55.650Z,100372.53
2023-03-18T11:48:31.402Z,100404.66
2023-03-18T11:51:27.200Z,100353.69
2023-03-18T11:54:23.285Z,100369.66
2023-03-18T11:56:57.321Z,100346.69
2023-03-18T11:59:54.637Z,100376.75
2023-03-18T12:02:43.620Z,100356.47
2023-03-18T12:05:37.952Z,100328.00
2023-03-18T12:08:20.660Z,100317.91
2023-03-18T12:11:23.460Z,100350.19
2023-03-18T12:14:07.396Z,100357.03
2023-03-18T12:16:59.131Z,100370.25
2023-03-18T12:19:54.146Z,100324.97
2023-03-18T12:22:55.369Z,100298.34
2023-03-18T12:25:54.676Z,100270.41
2023-03-18T12:28:50.688Z,100248.34
2023-03-18T12:31:40.735Z,100303.19
2023-03-18T12:34:21.190Z,100319.84
2023-03-18T12:37:08.890Z,100307.22
2023-03-18T12:40:06.640Z,100361.13
2023-03-18T12:42:51.677Z,100531.06
2023-03-18T12:45:22.987Z,100541.56
2023-03-18T12:48:00.909Z,100563.63
2023-03-18T12:50:36.336Z,100556.00
2023-03-18T12:53:14.783Z,100554.34
2023-03-18T12:55:47.025Z,100589.66
2023-03-18T12:58:20.434Z,100637.53
2023-03-18T13:00:54.614Z,100653.44
2023-03-18T13:03:33.146Z,100622.75
2023-03-18T13:06:06.359Z,100590.16
2023-03-18T13:09:03.302Z,100569.44
2023-03-18T13:12:05.432Z,100606.81
2023-03-18T13:14:48.738Z,100591.69
2023-03-18T13:17:23.693Z,100591.06
2023-03-18T13:19:52.924Z,100597.50
2023-03-18T13:22:44.069Z,100595.34
2023-03-18T13:25:23.854Z,100576.28
2023-03-18T13:28:18.951Z,100621.91
2023-03-18T13:30:59.484Z,100629.28
2023-03-18T13:33:54.803Z,100622.84
2023-03-18T13:36:48.903Z,100651.34
2023-03-18T13:39:24.300Z,100678.69
2023-03-18T13:42:19.813Z,100701.13
2023-03-18T13:44:55.280Z,100719.78
2023-03-18T13:47:25.875Z,100714.31
2023-03-18T13:50:01.298Z,100737.09
2023-03-18T13:52:36.440Z,100747.94
2023-03-18T13:55:08.159Z,100740.38
2023-03-18T13:57:48.941Z,100751.38
2023-03-18T14:00:36.273Z,100744.75
2023-03-18T14:03:17.279Z,100741.34
2023-03-18T14:05:47.009Z,100767.94
2023-03-18T14:08:47.846Z,100765.88
2023-03-18T14:11:50.386Z,100762.16
2023-03-18T14:14:45.115Z,100759.31
2023-03-18T14:17:25.593Z,100760.88
2023-03-18T14:19:57.918Z,100744.75
2023-03-18T14:22:35.734Z,100735.94
2023-03-18T14:25:37.782Z,100731.19
2023-03-18T14:28:30.286Z,100728.22
2023-03-18T14:31:36.043Z,100713.69
2023-03-18T14:34:33.187Z,100719.41
2023-03-18T14:37:22.167Z,100720.78
2023-03-18T14:39:53.828Z,100721.53
2023-03-18T14:42:31.580Z,100718.72
2023-03-18T14:45:06.718Z,100719.50
2023-03-18T14:47:50.766Z,100717.97
2023-03-18T14:50:35.033Z,100692.09
2023-03-18T14:53:13.777Z,100709.56
2023-03-18T14:55:42.423Z,100696.47
2023-03-18T14:58:17.950Z,100675.13
2023-03-18T15:01:08.787Z,100647.97
2023-03-18T15:03:40.130Z,100649.28
2023-03-18T15:06:11.426Z,100630.50
2023-03-18T15:08:48.088Z,100633.47
2023-03-18T15:11:20.547Z,100624.78
2023-03-18T15:13:48.787Z,100530.13
2023-03-18T15:16:21.597Z,100373.78
2023-03-18T15:18:58.781Z,99946.75
2023-03-18T15:21:34.725Z,99821.16
2023-03-18T15:24:07.645Z,100069.94
2023-03-18T15:26:38.647Z,100234.00
2023-03-18T15:29:25.177Z,100426.66
2023-03-18T15:31:54.445Z,100643.28
2023-03-18T15:34:30.906Z,100854.19
2023-03-18T15:37:04.668Z,100989.25
2023-03-18T15:39:36.697Z,101084.88
2023-03-18T15:42:13.970Z,101136.13
2023-03-18T15:44:46.214Z,101216.09
2023-03-18T15:47:23.298Z,101261.66
2023-03-18T15:50:01.987Z,101354.28
2023-03-18T15:52:36.965Z,101288.38
2023-03-18T15:55:20.253Z,101246.94
2023-03-18T15:57:48.745Z,101236.75
2023-03-18T16:00:20.760Z,101223.50
2023-03-18T16:02:50.385Z,101219.00
2023-03-18T16:05:24.776Z,101223.34
2023-03-18T16:07:53.964Z,101218.53
2023-03-18T16:10:26.475Z,101204.75
2023-03-18T16:12:57.986Z,101181.28
2023-03-18T16:15:28.197Z,101190.91
2023-03-18T16:17:57.940Z,101192.13
2023-03-18T16:20:29.120Z,101201.28
2023-03-18T16:22:59.759Z,101202.16
2023-03-18T16:25:29.478Z,101190.50
2023-03-18T16:28:57.550Z,101169.41
2023-03-18T16:32:20.371Z,101155.81
2023-03-18T16:35:43.702Z,101149.28
2023-03-18T16:38:41.112Z,101131.72
2023-03-18T16:41:09.453Z,101129.03
2023-03-18T16:43:37.417Z,101130.00
2023-03-18T16:46:05.708Z,101141.25
2023-03-18T16:48:35.037Z,101147.81
2023-03-18T16:51:04.545Z,101141.38
2023-03-18T16:53:33.265Z,101138.38
2023-03-18T16:56:05.880Z,101133.13
2023-03-18T16:58:35.582Z,101141.19
2023-03-18T17:01:06.268Z,101129.22
2023-03-18T17:03:34.782Z,101134.19
2023-03-18T17:06:02.883Z,101145.06
2023-03-18T17:08:35.261Z,101151.25
2023-03-18T17:11:18.492Z,101129.13
2023-03-18T17:13:50.283Z,101151.16
2023-03-18T17:16:25.233Z,101120.47
2023-03-18T17:18:53.420Z,101085.59
2023-03-18T17:21:28.258Z,101056.47
2023-03-18T17:23:56.867Z,101002.91
2023-03-18T17:26:28.657Z,100980.19
2023-03-18T17:28:58.623Z,100924.22
2023-03-18T17:31:26.768Z,100893.91
2023-03-18T17:33:59.687Z,100883.69
2023-03-18T17:36:27.973Z,100888.94
2023-03-18T17:38:58.771Z,100882.88
2023-03-18T17:41:28.511Z,100864.63
2023-03-18T17:43:56.520Z,100842.53
2023-03-18T17:46:24.858Z,100834.16
2023-03-18T17:48:52.833Z,100842.88
2023-03-18T17:51:23.742Z,100851.00
2023-03-18T17:53:56.655Z,100856.53
2023-03-18T17:56:27.418Z,100856.66
2023-03-18T17:58:56.863Z,100840.94
2023-03-18T18:01:27.560Z,100842.59
2023-03-18T18:03:57.100Z,100849.63
2023-03-18T18:06:28.991Z,100870.84
2023-03-18T18:08:59.007Z,100892.31
2023-03-18T18:11:29.085Z,100825.69
2023-03-18T18:14:16.520Z,100634.28
2023-03-18T18:16:45.830Z,100545.03
2023-03-18T18:19:15.930Z,100531.09
2023-03-18T18:21:46.171Z,100233.25
2023-03-18T18:24:25.266Z,100069.03
2023-03-18T18:26:53.593Z,100082.63
2023-03-18T18:29:26.494Z,100167.78
2023-03-18T18:31:55.164Z,100181.97
2023-03-18T18:34:23.186Z,100204.78
2023-03-18T18:36:51.707Z,100230.97
2023-03-18T18:39:21.021Z,100448.66
2023-03-18T18:41:51.373Z,100457.97
2023-03-18T18:44:20.157Z,100449.44
2023-03-18T18:46:50.038Z,100490.34
2023-03-18T18:49:22.559Z,100522.81
2023-03-18T18:51:53.479Z,100513.94
2023-03-18T18:54:22.790Z,100511.72
2023-03-18T18:56:51.586Z,100522.66
2023-03-18T18:59:26.941Z,100513.84
2023-03-18T19:01:56.877Z,100354.53
2023-03-18T19:04:25.352Z,100366.44
2023-03-18T19:06:53.850Z,100350.81
2023-03-18T19:09:24.465Z,100344.91
2023-03-18T19:11:53.384Z,100355.41
2023-03-18T19:14:24.583Z,100348.03
2023-03-18T19:16:53.716Z,100346.25
2023-03-18T19:19:27.209Z,100357.09
2023-03-18T19:21:55.089Z,100352.69
2023-03-18T19:24:28.759Z,100351.19
2023-03-18T19:26:58.453Z,100346.53
2023-03-18T19:29:29.734Z,100349.50
2023-03-18T19:31:57.997Z,100349.50
2023-03-18T19:34:27.819Z,100348.25
2023-03-18T19:36:57.337Z,100335.84
2023-03-18T19:39:27.747Z,100280.00
2023-03-18T19:41:55.775Z,100278.22
2023-03-18T19:44:26.108Z,100259.28
2023-03-18T19:46:56.157Z,100256.25
2023-03-18T19:49:28.578Z,100262.44
2023-03-18T19:51:57.227Z,100238.84
2023-03-18T19:54:29.054Z,100241.78
2023-03-18T19:57:00.348Z,100250.41
2023-03-18T19:59:37.440Z,100249.13
2023-03-18T20:02:18.959Z,100238.31
2023-03-18T20:04:49.498Z,100232.53
2023-03-18T20:07:18.998Z,100228.59
2023-03-18T20:09:47.372Z,100246.22
2023-03-18T20:12:35.199Z,100240.63
2023-03-18T20:15:04.542Z,100244.44
2023-03-18T20:17:37.343Z,100218.84
2023-03-18T20:20:13.834Z,100296.03
2023-03-18T20:22:46.279Z,100436.38
2023-03-18T20:25:22.555Z,100490.81
2023-03-18T20:27:53.622Z,100498.75
2023-03-18T20:30:27.766Z,100900.66
2023-03-18T20:32:56.322Z,100969.03
2023-03-18T20:35:28.764Z,100983.38
2023-03-18T20:37:59.226Z,100983.75
2023-03-18T20:40:29.222Z,100996.66
2023-03-18T20:43:03.507Z,100998.25
2023-03-18T20:45:32.791Z,100992.47
2023-03-18T20:48:01.807Z,101001.13
2023-03-18T20:50:32.046Z,101011.06
2023-03-18T20:53:08.720Z,101005.00
2023-03-18T20:55:46.782Z,100994.19
2023-03-18T20:59:11.322Z,101001.84
2023-03-18T21:01:46.485Z,101000.22
2023-03-18T21:04:14.995Z,100996.19
2023-03-18T21:06:46.251Z,101002.94
2023-03-18T21:09:16.456Z,100994.13
2023-03-18T21:11:48.404Z,100986.09
2023-03-18T21:14:16.783Z,100992.59
2023-03-18T21:16:44.749Z,100998.91
2023-03-18T21:19:13.023Z,100994.75
2023-03-18T21:21:42.762Z,101001.97
2023-03-18T21:24:24.600Z,100993.72
2023-03-18T21:27:05.448Z,100124.25
2023-03-18T21:29:34.101Z,100183.13
2023-03-18T21:32:02.683Z,100245.09
2023-03-18T21:34:30.769Z,100246.66
2023-03-18T21:36:58.614Z,100268.78
2023-03-18T21:39:27.923Z,100259.19
2023-03-18T21:41:57.202Z,100261.81
2023-03-18T21:44:25.093Z,100257.97
2023-03-18T21:46:53.001Z,100238.19
2023-03-18T21:49:21.001Z,100210.72
2023-03-18T21:51:48.873Z,100234.56
2023-03-18T21:54:19.059Z,100232.06
2023-03-18T21:56:51.179Z,100228.91
2023-03-18T21:59:19.132Z,100227.78
2023-03-18T22:01:47.303Z,100218.78
2023-03-18T22:04:15.637Z,100213.25
2023-03-18T22:06:43.605Z,100211.97
2023-03-18T22:09:11.550Z,100203.97
2023-03-18T22:11:39.615Z,100197.81
2023-03-18T22:14:14.532Z,100183.75
2023-03-18T22:16:42.559Z,100205.63
2023-03-18T22:19:10.490Z,100223.28
2023-03-18T22:21:38.439Z,100229.50
2023-03-18T22:24:07.142Z,100234.59
2023-03-18T22:26:34.945Z,100234.59
2023-03-18T22:29:02.984Z,100234.59
2023-03-18T22:31:32.622Z,100304.13
2023-03-18T22:34:00.646Z,100319.94
2023-03-18T22:36:29.710Z,100315.25
2023-03-18T22:38:57.721Z,100318.53
2023-03-18T22:41:29.328Z,100304.25
2023-03-18T22:44:00.053Z,100309.56
2023-03-18T22:46:29.947Z,100309.03
2023-03-18T22:49:05.555Z,100313.13
2023-03-18T22:51:40.603Z,100296.75
2023-03-18T22:54:18.905Z,100294.03
2023-03-18T22:56:46.876Z,100288.81
2023-03-18T22:59:15.414Z,100288.81
2023-03-18T23:01:43.515Z,100297.06
2023-03-18T23:04:14.186Z,100278.66
2023-03-18T23:06:43.041Z,100279.53
2023-03-18T23:09:11.115Z,100260.91
2023-03-18T23:11:39.053Z,100275.44
2023-03-18T23:14:11.952Z,100274.53
2023-03-18T23:16:41.691Z,100265.50
2023-03-18T23:19:09.744Z,100251.78
2023-03-18T23:21:46.336Z,100260.28
2023-03-18T23:24:15.585Z,100250.78
2023-03-18T23:26:43.480Z,100238.31
2023-03-18T23:29:13.774Z,100240.78
2023-03-18T23:31:41.764Z,100237.06
2023-03-18T23:34:09.856Z,100233.38
2023-03-18T23:36:37.867Z,100232.84
2023-03-18T23:39:07.159Z,100209.84
2023-03-18T23:41:36.555Z,100211.69
2023-03-18T23:44:07.401Z,100209.75
2023-03-18T23:46:35.784Z,100203.63
2023-03-18T23:49:04.091Z,100200.31
2023-03-18T23:51:34.371Z,100201.47
2023-03-18T23:54:02.470Z,100200.66
2023-03-18T23:56:32.303Z,100186.22
2023-03-18T23:59:03.473Z,100176.00
